Time;durP1;ratioP1;P1;durP2;ratioP2;P2;SDS_P1;SDS_P2;PMS_P1;PMS_P2;Temp;Humidity;BMP_temperature;BMP_pressure;BME280_temperature;BME280_humidity;BME280_pressure;Samples;Min_cycle;Max_cycle;Signal;HPM_P1;HPM_P2
2023/03/21 00:04:54;;;;;;;109.53;40.90;;;;;;;8.29;100.00;101517.28;10335742;28;20049;-84
2023/03/21 00:09:55;;;;;;;116.82;44.72;;;;;;;8.25;100.00;101513.31;10373078;28;20603;-84
2023/03/21 00:15:03;;;;;;;126.13;44.38;;;;;;;8.29;100.00;101509.06;10392016;28;20524;-84
2023/03/21 00:20:04;;;;;;;105.65;40.13;;;;;;;8.27;100.00;101510.34;10415678;28;20041;-83
2023/03/21 00:25:07;;;;;;;98.32;39.28;;;;;;;8.27;100.00;101502.13;10433152;28;20100;-86
2023/03/21 00:30:09;;;;;;;117.15;40.15;;;;;;;8.19;100.00;101483.19;10411038;28;20595;-85
2023/03/21 00:35:09;;;;;;;99.20;38.20;;;;;;;8.14;100.00;101472.88;10374047;28;20060;-84
2023/03/21 00:40:11;;;;;;;96.22;37.72;;;;;;;8.32;100.00;101498.69;10368867;28;20084;-85
2023/03/21 00:45:11;;;;;;;118.18;37.70;;;;;;;8.17;100.00;101458.72;10333691;28;20034;-87
2023/03/21 00:50:12;;;;;;;111.45;36.95;;;;;;;8.37;100.00;101493.34;10334011;28;20037;-87
2023/03/21 00:55:14;;;;;;;106.43;35.85;;;;;;;8.38;100.00;101478.59;10334410;28;20052;-86
2023/03/21 01:00:16;;;;;;;98.20;33.42;;;;;;;8.40;100.00;101470.97;10357086;28;20034;-87
2023/03/21 01:06:02;;;;;;;95.22;32.95;;;;;;;8.29;100.00;101447.88;10405598;28;20040;-87
2023/03/21 01:10:39;;;;;;;101.88;34.10;;;;;;;8.39;100.00;101459.16;10393136;28;20045;-81
2023/03/21 01:15:44;;;;;;;98.40;30.38;;;;;;;8.43;100.00;101462.31;10374802;28;20056;-82
2023/03/21 01:20:45;;;;;;;89.00;31.10;;;;;;;8.42;100.00;101447.75;10365950;28;20058;-83
2023/03/21 01:25:46;;;;;;;117.35;35.00;;;;;;;8.40;100.00;101449.03;10350938;28;20046;-83
2023/03/21 01:30:50;;;;;;;132.57;34.70;;;;;;;8.53;100.00;101470.03;10364496;28;20117;-86
2023/03/21 01:35:50;;;;;;;125.22;35.53;;;;;;;8.53;100.00;101464.53;10371515;28;20036;-87
2023/03/21 01:40:51;;;;;;;158.23;37.78;;;;;;;8.52;100.00;101454.66;10348402;28;20477;-87
2023/03/21 01:46:29;;;;;;;146.73;37.70;;;;;;;8.54;100.00;101456.09;10331581;28;20058;-86
2023/03/21 01:51:32;;;;;;;164.50;37.67;;;;;;;8.46;100.00;101432.53;10404411;28;20040;-85
2023/03/21 01:56:35;;;;;;;141.55;34.13;;;;;;;8.53;100.00;101446.16;10387329;28;20041;-87
2023/03/21 02:01:37;;;;;;;148.13;37.70;;;;;;;8.57;100.00;101447.38;10336430;28;20081;-86
2023/03/21 02:06:47;;;;;;;141.18;36.03;;;;;;;8.46;100.00;101427.03;10297999;28;20470;-87
2023/03/21 02:11:48;;;;;;;133.27;35.70;;;;;;;8.46;100.00;101427.03;10419492;28;20060;-86
2023/03/21 02:16:57;;;;;;;128.43;36.72;;;;;;;8.54;100.00;101434.13;10429197;28;20059;-84
2023/03/21 02:22:17;;;;;;;143.55;36.83;;;;;;;8.60;100.00;101437.84;10414454;28;20052;-84
2023/03/21 02:27:21;;;;;;;120.15;35.03;;;;;;;8.54;100.00;101416.81;10447011;28;20064;-83
2023/03/21 02:32:40;;;;;;;144.18;39.08;;;;;;;8.58;100.00;101421.63;10353957;28;20165;-82
2023/03/21 02:37:44;;;;;;;112.10;34.97;;;;;;;8.56;100.00;101398.22;10402966;28;20089;-82
2023/03/21 02:43:05;;;;;;;107.38;33.70;;;;;;;8.62;100.00;101408.28;10393448;28;20053;-83
2023/03/21 02:48:11;;;;;;;110.28;34.42;;;;;;;8.54;100.00;101398.47;10412677;28;20092;-83
2023/03/21 02:53:12;;;;;;;102.50;29.73;;;;;;;8.58;100.00;101396.94;10412550;28;20053;-84
2023/03/21 02:58:16;;;;;;;86.15;28.30;;;;;;;8.11;100.00;101336.19;10379525;28;20041;-85
2023/03/21 03:03:16;;;;;;;104.75;30.20;;;;;;;8.64;100.00;101404.25;10410571;28;20152;-87
2023/03/21 03:08:20;;;;;;;86.88;27.35;;;;;;;8.62;100.00;101409.13;10394383;28;20066;-86
2023/03/21 03:13:30;;;;;;;91.63;29.67;;;;;;;8.54;100.00;101389.38;10413699;28;20042;-84
2023/03/21 03:18:57;;;;;;;94.07;29.20;;;;;;;8.65;100.00;101394.94;10395737;28;20030;-85
2023/03/21 03:24:23;;;;;;;94.93;29.30;;;;;;;8.63;100.00;101399.81;10412350;28;20068;-85
2023/03/21 03:29:24;;;;;;;90.28;30.02;;;;;;;8.60;100.00;101389.31;10378727;28;20033;-83
2023/03/21 03:34:28;;;;;;;82.82;27.58;;;;;;;8.65;100.00;101403.19;10377807;28;20053;-83
2023/03/21 03:39:33;;;;;;;78.90;27.15;;;;;;;8.61;100.00;101382.75;10393228;28;20076;-82
2023/03/21 03:44:34;;;;;;;74.63;26.60;;;;;;;8.59;100.00;101381.31;10360703;28;20037;-85
2023/03/21 03:49:42;;;;;;;82.78;26.02;;;;;;;8.69;100.00;101398.91;10394027;28;20061;-85
2023/03/21 03:54:43;;;;;;;68.57;25.25;;;;;;;8.66;100.00;101388.41;10377701;28;20048;-86
2023/03/21 03:59:44;;;;;;;72.57;26.05;;;;;;;8.66;100.00;101382.91;10362492;28;20069;-87
2023/03/21 04:04:45;;;;;;;71.10;24.50;;;;;;;8.63;100.00;101377.88;10322570;28;20056;-87
2023/03/21 04:09:46;;;;;;;74.78;25.52;;;;;;;8.68;100.00;101374.41;10351151;28;20034;-84
2023/03/21 04:14:47;;;;;;;65.93;24.52;;;;;;;8.51;100.00;101341.28;10337546;28;20041;-85
2023/03/21 04:19:50;;;;;;;65.55;23.63;;;;;;;8.25;100.00;101296.59;10337094;28;20105;-86
2023/03/21 04:24:52;;;;;;;70.35;25.08;;;;;;;8.69;100.00;101376.94;10351901;28;20045;-86
2023/03/21 04:29:52;;;;;;;77.68;28.10;;;;;;;8.65;100.00;101366.66;10336032;28;20030;-87
2023/03/21 04:34:53;;;;;;;75.82;29.15;;;;;;;8.67;100.00;101362.63;10334698;28;20049;-85
2023/03/21 04:39:53;;;;;;;69.25;25.17;;;;;;;8.51;100.00;101346.75;10352780;28;20037;-85
2023/03/21 04:44:54;;;;;;;68.63;24.48;;;;;;;8.64;100.00;101371.31;10391968;28;20048;-87
2023/03/21 04:49:55;;;;;;;71.60;24.75;;;;;;;8.63;100.00;101349.59;10408227;28;20029;-86
2023/03/21 04:54:56;;;;;;;74.28;24.98;;;;;;;8.65;100.00;101358.44;10407533;28;20124;-85
2023/03/21 04:59:56;;;;;;;74.60;24.27;;;;;;;8.59;100.00;101338.22;10375804;28;20509;-85
2023/03/21 05:04:57;;;;;;;76.03;24.25;;;;;;;8.60;100.00;101341.78;10350891;28;20434;-88
2023/03/21 05:09:58;;;;;;;77.13;23.88;;;;;;;8.54;100.00;101340.81;10333232;28;20046;-81
2023/03/21 05:14:59;;;;;;;69.78;23.77;;;;;;;8.53;100.00;101339.13;10351676;28;20105;-88
2023/03/21 05:19:59;;;;;;;68.00;22.83;;;;;;;8.60;100.00;101350.03;10387166;28;20061;-86
2023/03/21 05:25:00;;;;;;;76.30;24.90;;;;;;;8.55;100.00;101339.75;10357134;28;20048;-88
2023/03/21 05:30:12;;;;;;;65.32;23.67;;;;;;;8.53;100.00;101333.66;10390556;28;20426;-88
2023/03/21 05:35:12;;;;;;;63.53;21.42;;;;;;;8.57;100.00;101345.84;10341116;28;20041;-88
2023/03/21 05:40:13;;;;;;;72.95;23.33;;;;;;;8.62;100.00;101347.88;10372829;28;20426;-87
2023/03/21 05:45:14;;;;;;;62.20;23.10;;;;;;;8.59;100.00;101349.19;10416316;28;20100;-86
2023/03/21 05:50:15;;;;;;;64.53;24.77;;;;;;;8.59;100.00;101343.72;10420757;28;20045;-86
2023/03/21 05:55:15;;;;;;;64.30;23.65;;;;;;;8.54;100.00;101323.50;10378548;28;20073;-87
2023/03/21 06:00:16;;;;;;;60.42;23.60;;;;;;;8.62;100.00;101339.66;10375019;28;20030;-86
2023/03/21 06:05:17;;;;;;;63.25;23.63;;;;;;;8.55;100.00;101337.00;10387810;28;20041;-78
2023/03/21 06:10:17;;;;;;;66.05;25.23;;;;;;;8.61;100.00;101336.09;10389499;28;20037;-81
2023/03/21 06:15:18;;;;;;;66.00;26.10;;;;;;;8.64;100.00;101349.34;10392952;28;20109;-81
2023/03/21 06:20:18;;;;;;;64.38;23.98;;;;;;;8.64;100.00;101340.25;10379893;28;20092;-73
2023/03/21 06:25:20;;;;;;;61.95;24.27;;;;;;;8.67;100.00;101348.88;10412800;28;20114;-71
2023/03/21 06:30:21;;;;;;;74.25;25.98;;;;;;;8.63;100.00;101339.44;10396389;28;20227;-79
2023/03/21 06:35:21;;;;;;;66.80;26.95;;;;;;;8.31;100.00;101286.63;10395602;28;20462;-78
2023/03/21 06:40:22;;;;;;;64.43;27.13;;;;;;;8.72;100.00;101347.34;10415103;28;20069;-77
2023/03/21 06:45:24;;;;;;;60.58;27.70;;;;;;;8.66;100.00;101332.63;10396424;28;20401;-79
2023/03/21 06:50:24;;;;;;;64.85;26.85;;;;;;;8.71;100.00;101338.28;10377971;28;20053;-79
2023/03/21 06:55:27;;;;;;;65.57;27.55;;;;;;;8.64;100.00;101326.53;10395731;28;20273;-79
2023/03/21 07:00:28;;;;;;;67.30;27.77;;;;;;;8.69;100.00;101344.00;10355589;28;20084;-80
2023/03/21 07:05:28;;;;;;;75.70;29.80;;;;;;;8.71;100.00;101337.47;10370753;28;20057;-80
2023/03/21 07:10:29;;;;;;;76.63;29.60;;;;;;;8.78;100.00;101357.41;10354174;28;20089;-80
2023/03/21 07:15:29;;;;;;;72.88;30.05;;;;;;;8.76;100.00;101348.56;10354353;28;20066;-80
2023/03/21 07:20:30;;;;;;;79.43;29.92;;;;;;;8.75;100.00;101341.41;10321855;28;20041;-81
2023/03/21 07:25:31;;;;;;;67.30;29.70;;;;;;;8.75;100.00;101352.41;10354285;28;20038;-81
2023/03/21 07:30:31;;;;;;;71.88;30.38;;;;;;;8.85;100.00;101355.44;10338910;28;20034;-77
2023/03/21 07:35:32;;;;;;;77.18;31.38;;;;;;;8.85;100.00;101353.53;10320445;28;20065;-80
2023/03/21 07:40:32;;;;;;;65.05;28.88;;;;;;;8.85;100.00;101341.72;10374257;28;20093;-80
2023/03/21 07:45:32;;;;;;;74.93;31.58;;;;;;;8.87;100.00;101340.41;10377550;28;20049;-80
2023/03/21 07:50:33;;;;;;;59.30;28.67;;;;;;;9.05;100.00;101356.00;10409631;28;20033;-80
2023/03/21 07:55:34;;;;;;;56.40;25.00;;;;;;;8.98;100.00;101340.69;10412419;28;20123;-82
2023/03/21 08:00:34;;;;;;;44.17;21.42;;;;;;;8.97;100.00;101349.97;10410442;28;20026;-80
2023/03/21 08:05:36;;;;;;;43.20;21.33;;;;;;;9.16;100.00;101353.56;10391155;28;20044;-77
2023/03/21 08:10:36;;;;;;;38.55;19.83;;;;;;;9.09;100.00;101332.50;10363043;28;20041;-78
2023/03/21 08:15:38;;;;;;;39.45;18.80;;;;;;;9.26;100.00;101348.31;10388536;28;20080;-77
2023/03/21 08:20:39;;;;;;;33.28;16.10;;;;;;;9.17;100.00;101312.09;10371665;28;20037;-78
2023/03/21 08:25:39;;;;;;;32.80;16.02;;;;;;;9.35;100.00;101340.59;10372785;28;20068;-80
2023/03/21 08:30:40;;;;;;;25.55;14.05;;;;;;;9.42;100.00;101338.56;10390205;28;20661;-78
2023/03/21 08:35:40;;;;;;;24.00;13.00;;;;;;;9.40;100.00;101338.78;10373483;28;21110;-77
2023/03/21 08:40:41;;;;;;;20.92;13.52;;;;;;;9.35;100.00;101326.84;10352684;28;20042;-77
2023/03/21 08:45:41;;;;;;;20.90;12.60;;;;;;;9.25;100.00;101325.50;10395156;28;20045;-76
2023/03/21 08:50:41;;;;;;;18.70;12.63;;;;;;;9.41;100.00;101329.47;10367842;28;20030;-75
2023/03/21 08:55:43;;;;;;;18.65;12.10;;;;;;;9.35;100.00;101324.94;10362887;28;20040;-76
2023/03/21 09:00:43;;;;;;;27.88;13.25;;;;;;;9.43;100.00;101332.84;10333765;28;20049;-78
2023/03/21 09:05:44;;;;;;;21.15;13.60;;;;;;;9.27;100.00;101312.34;10385714;28;20042;-77
2023/03/21 09:10:44;;;;;;;23.80;14.05;;;;;;;9.30;100.00;101327.53;10333570;28;20087;-76
2023/03/21 09:15:45;;;;;;;23.05;15.05;;;;;;;9.31;100.00;101301.75;10347944;28;20058;-75
2023/03/21 09:20:46;;;;;;;25.35;15.85;;;;;;;9.37;100.00;101309.03;10349677;28;20046;-70
2023/03/21 09:25:46;;;;;;;22.35;15.07;;;;;;;9.47;100.00;101316.72;10361857;28;20037;-75
2023/03/21 09:30:47;;;;;;;23.85;14.77;;;;;;;9.45;100.00;101292.22;10367141;28;20030;-77
2023/03/21 09:35:48;;;;;;;23.23;15.40;;;;;;;9.62;100.00;101319.00;10369263;28;20086;-76
2023/03/21 09:41:14;;;;;;;21.42;14.68;;;;;;;9.60;100.00;101310.16;10333155;28;20038;-76
2023/03/21 09:46:26;;;;;;;20.33;14.43;;;;;;;9.66;100.00;101309.22;10354342;28;20054;-74
2023/03/21 09:51:47;;;;;;;21.02;13.57;;;;;;;9.64;100.00;101300.38;10315772;28;20035;-75
2023/03/21 09:56:48;;;;;;;21.67;15.00;;;;;;;9.65;100.00;101297.38;10363831;28;20041;-76
2023/03/21 10:01:49;;;;;;;25.38;15.05;;;;;;;9.76;100.00;101303.97;10395908;28;20057;-76
2023/03/21 10:06:56;;;;;;;23.23;15.10;;;;;;;9.67;100.00;101284.25;10356244;28;20034;-75
2023/03/21 10:12:13;;;;;;;24.05;15.18;;;;;;;9.55;100.00;101280.66;10348011;28;20097;-76
2023/03/21 10:17:28;;;;;;;24.45;15.05;;;;;;;9.58;100.00;101279.31;10342090;28;20064;-76
2023/03/21 10:22:29;;;;;;;31.08;19.10;;;;;;;9.46;100.00;101265.56;10394602;28;20053;-73
2023/03/21 10:27:30;;;;;;;37.67;19.63;;;;;;;9.46;100.00;101282.03;10397947;28;20042;-74
2023/03/21 10:32:31;;;;;;;33.40;20.42;;;;;;;9.44;100.00;101276.78;10363237;28;20029;-73
2023/03/21 10:37:31;;;;;;;31.65;21.42;;;;;;;9.39;100.00;101271.19;10394064;28;20052;-73
2023/03/21 10:42:32;;;;;;;34.22;20.63;;;;;;;9.19;100.00;101257.75;10364271;28;20120;-74
2023/03/21 10:47:33;;;;;;;36.58;21.60;;;;;;;9.34;100.00;101276.53;10396795;28;20053;-74
2023/03/21 10:52:33;;;;;;;36.60;21.73;;;;;;;9.11;100.00;101243.53;10412214;28;20041;-74
2023/03/21 10:57:36;;;;;;;40.20;22.83;;;;;;;9.28;100.00;101264.59;10362304;28;20131;-75
2023/03/21 11:02:36;;;;;;;52.70;23.88;;;;;;;9.36;100.00;101266.13;10376918;28;20091;-74
2023/03/21 11:07:37;;;;;;;44.25;24.15;;;;;;;9.35;100.00;101264.47;10377746;28;20045;-75
2023/03/21 11:12:38;;;;;;;44.85;22.80;;;;;;;9.37;100.00;101245.84;10379604;28;20038;-74
2023/03/21 11:17:39;;;;;;;32.13;20.70;;;;;;;9.52;100.00;101263.78;10362507;28;20037;-76
2023/03/21 11:22:42;;;;;;;31.15;19.60;;;;;;;9.63;100.00;101243.69;10345356;28;20050;-74
2023/03/21 11:27:49;;;;;;;25.45;18.13;;;;;;;9.55;100.00;101211.06;10344275;28;20041;-76
2023/03/21 11:32:57;;;;;;;25.08;16.58;;;;;;;9.84;100.00;101221.09;10388351;28;20038;-76
2023/03/21 11:37:57;;;;;;;28.70;17.60;;;;;;;10.12;100.00;101236.00;10338842;28;20042;-79
2023/03/21 11:43:00;;;;;;;27.70;17.45;;;;;;;10.23;100.00;101215.03;10312339;28;20053;-80
2023/03/21 11:48:04;;;;;;;26.70;15.23;;;;;;;10.40;100.00;101190.38;10296432;28;20049;-79
2023/03/21 11:53:16;;;;;;;25.20;15.93;;;;;;;10.78;100.00;101206.22;10366734;28;20414;-81
2023/03/21 11:58:29;;;;;;;20.35;14.73;;;;;;;11.10;100.00;101181.72;10385657;28;20045;-79
2023/03/21 12:03:42;;;;;;;21.98;13.57;;;;;;;11.04;100.00;101162.59;10393340;28;20041;-80
2023/03/21 12:08:49;;;;;;;21.00;13.27;;;;;;;11.34;100.00;101153.16;10408485;28;20041;-79
2023/03/21 12:13:58;;;;;;;18.40;11.10;;;;;;;11.29;100.00;101151.16;10391050;28;20037;-79
2023/03/21 12:19:20;;;;;;;26.58;12.70;;;;;;;11.24;100.00;101129.00;10411371;28;20595;-79
2023/03/21 12:24:25;;;;;;;21.58;12.80;;;;;;;11.43;100.00;101135.94;10392216;28;20097;-78
2023/03/21 12:29:40;;;;;;;20.52;12.25;;;;;;;11.40;100.00;101133.66;10392470;28;20067;-78
2023/03/21 12:34:44;;;;;;;19.48;11.27;;;;;;;11.57;100.00;101125.34;10367083;28;20102;-79
2023/03/21 12:39:45;;;;;;;17.65;9.75;;;;;;;11.36;100.00;101115.97;10404534;28;20060;-80
2023/03/21 12:44:48;;;;;;;17.88;9.15;;;;;;;11.07;100.00;101099.53;10373123;28;20060;-79
2023/03/21 12:50:12;;;;;;;15.93;9.63;;;;;;;11.27;100.00;101103.72;10374934;28;20088;-80
2023/03/21 12:55:16;;;;;;;14.63;9.55;;;;;;;11.38;100.00;101097.25;10401278;28;20119;-79
2023/03/21 13:00:27;;;;;;;18.23;8.98;;;;;;;11.26;100.00;101097.34;10358620;28;20491;-79
2023/03/21 13:05:45;;;;;;;12.98;9.13;;;;;;;10.94;100.00;101088.88;10347748;28;20038;-78
2023/03/21 13:10:46;;;;;;;15.57;9.02;;;;;;;10.72;100.00;101088.81;10349729;28;20038;-78
2023/03/21 13:16:23;;;;;;;17.95;10.20;;;;;;;10.81;100.00;101094.72;10364481;28;20046;-80
2023/03/21 13:21:42;;;;;;;13.05;8.50;;;;;;;10.98;100.00;101084.53;10397935;28;20182;-80
2023/03/21 13:26:44;;;;;;;16.77;8.60;;;;;;;10.84;100.00;101063.94;10367035;28;20050;-79
2023/03/21 13:31:47;;;;;;;12.93;8.55;;;;;;;10.92;100.00;101047.00;10361153;28;20061;-82
2023/03/21 13:36:48;;;;;;;16.50;8.90;;;;;;;11.01;100.00;101028.94;10389850;28;20059;-79
2023/03/21 13:41:49;;;;;;;16.23;8.65;;;;;;;11.17;100.00;101057.53;10346746;28;20046;-79
2023/03/21 13:47:03;;;;;;;12.90;8.13;;;;;;;11.26;100.00;101042.22;10347905;28;20046;-80
2023/03/21 13:52:09;;;;;;;15.15;8.25;;;;;;;11.55;100.00;101050.31;10292721;28;20098;-81
2023/03/21 13:57:40;;;;;;;13.60;7.55;;;;;;;11.77;100.00;101030.19;10365497;28;20049;-81
2023/03/21 14:02:52;;;;;;;12.05;7.07;;;;;;;12.17;100.00;101013.22;10343474;28;20053;-86
2023/03/21 14:08:08;;;;;;;11.52;6.65;;;;;;;12.16;100.00;100996.97;10370351;28;20068;-80
2023/03/21 14:13:15;;;;;;;11.77;7.20;;;;;;;12.07;100.00;100974.50;10388221;28;20116;-83
2023/03/21 14:18:17;;;;;;;10.65;6.78;;;;;;;11.99;100.00;100969.47;10356428;28;20037;-82
2023/03/21 14:23:19;;;;;;;17.20;7.20;;;;;;;12.00;100.00;100966.44;10363043;28;20038;-82
2023/03/21 14:28:31;;;;;;;12.38;6.97;;;;;;;12.00;100.00;100973.91;10364970;28;20494;-82
2023/03/21 14:33:38;;;;;;;12.93;7.15;;;;;;;12.16;100.00;100981.22;10385875;28;20050;-83
2023/03/21 14:38:38;;;;;;;;;;;;;;;12.18;100.00;100973.50;10412002;28;20052;-82
2023/03/21 14:43:39;;;;;;;14.48;6.95;;;;;;;12.11;100.00;100959.09;10412138;28;20206;-83
2023/03/21 14:48:39;;;;;;;19.25;7.80;;;;;;;12.25;100.00;100941.00;10379725;28;20046;-83
2023/03/21 14:53:40;;;;;;;13.13;7.93;;;;;;;12.23;100.00;100937.66;10380349;28;20041;-82
2023/03/21 14:58:41;;;;;;;17.73;7.88;;;;;;;12.48;100.00;100950.00;10378805;28;20120;-82
2023/03/21 15:03:45;;;;;;;13.00;7.05;;;;;;;12.65;100.00;100920.31;10362479;28;20041;-82
2023/03/21 15:08:56;;;;;;;11.05;6.20;;;;;;;13.56;100.00;100906.28;10361773;28;20091;-83
2023/03/21 15:13:57;;;;;;;15.40;7.55;;;;;;;14.43;100.00;100892.50;10378713;28;20064;-84
2023/03/21 15:18:58;;;;;;;12.63;6.78;;;;;;;13.97;100.00;100914.66;10377845;28;20040;-84
2023/03/21 15:24:38;;;;;;;15.27;7.75;;;;;;;13.05;100.00;100907.78;10394700;28;20045;-85
2023/03/21 15:29:40;;;;;;;14.48;7.55;;;;;;;12.23;100.00;100907.28;10395539;28;20152;-83
2023/03/21 15:34:41;;;;;;;16.13;7.65;;;;;;;12.05;100.00;100911.31;10380313;28;20052;-85
2023/03/21 15:39:42;;;;;;;16.33;7.85;;;;;;;11.90;100.00;100911.16;10336147;28;20058;-82
2023/03/21 15:44:48;;;;;;;14.38;7.68;;;;;;;11.90;100.00;100903.72;10352439;28;20089;-80
2023/03/21 15:49:52;;;;;;;14.30;8.00;;;;;;;12.03;100.00;100905.22;10368333;28;20042;-81
2023/03/21 15:54:58;;;;;;;11.98;8.20;;;;;;;12.04;100.00;100909.63;10369248;28;20804;-78
2023/03/21 16:00:10;;;;;;;13.88;7.90;;;;;;;11.46;100.00;100828.56;10357192;28;20052;-82
2023/03/21 16:05:24;;;;;;;13.07;7.82;;;;;;;11.80;100.00;100898.09;10409775;28;20046;-82
2023/03/21 16:10:35;;;;;;;16.55;8.10;;;;;;;11.74;100.00;100921.22;10391353;28;20206;-85
2023/03/21 16:15:35;;;;;;;16.83;8.77;;;;;;;11.58;100.00;100916.63;10378236;28;20041;-86
2023/03/21 16:20:40;;;;;;;18.88;8.02;;;;;;;11.57;100.00;100915.78;10448391;28;20045;-86
2023/03/21 16:25:41;;;;;;;14.93;8.02;;;;;;;11.62;100.00;100898.47;10385298;28;20129;-84
2023/03/21 16:30:42;;;;;;;22.35;10.48;;;;;;;11.64;100.00;100891.59;10392015;28;20068;-85
2023/03/21 16:35:43;;;;;;;16.02;9.35;;;;;;;11.70;100.00;100903.53;10393268;28;20681;-84
2023/03/21 16:40:43;;;;;;;17.95;8.73;;;;;;;11.52;100.00;100900.03;10411071;28;20421;-84
2023/03/21 16:45:44;;;;;;;15.60;9.02;;;;;;;11.56;100.00;100907.78;10436488;28;20045;-83
2023/03/21 16:50:45;;;;;;;17.73;8.05;;;;;;;11.41;100.00;100895.50;10449919;28;20040;-85
2023/03/21 16:55:46;;;;;;;12.30;8.23;;;;;;;11.39;100.00;100891.31;10433788;28;20041;-84
2023/03/21 17:00:46;;;;;;;14.45;8.93;;;;;;;11.45;100.00;100907.69;10432700;28;20029;-86
2023/03/21 17:05:47;;;;;;;13.77;9.38;;;;;;;11.37;100.00;100916.41;10433660;28;20046;-86
2023/03/21 17:10:47;;;;;;;18.88;12.25;;;;;;;11.26;100.00;100918.19;10364869;28;20041;-85
2023/03/21 17:15:47;;;;;;;15.88;9.68;;;;;;;11.27;100.00;100943.88;10364581;28;20042;-77
2023/03/21 17:20:48;;;;;;;18.52;10.75;;;;;;;11.19;100.00;100941.56;10408687;28;20044;-79
2023/03/21 17:25:48;;;;;;;21.00;13.15;;;;;;;10.86;100.00;100948.84;10373359;28;20042;-75
2023/03/21 17:30:49;;;;;;;22.52;14.55;;;;;;;10.50;100.00;100942.84;10406521;28;20048;-79
2023/03/21 17:35:49;;;;;;;24.42;14.80;;;;;;;10.45;100.00;100970.25;10389993;28;20034;-79
2023/03/21 17:40:50;;;;;;;27.10;15.68;;;;;;;10.20;100.00;100976.97;10405689;28;20052;-81
2023/03/21 17:45:51;;;;;;;23.88;16.75;;;;;;;10.08;100.00;100968.78;10371716;28;20048;-81
2023/03/21 17:50:51;;;;;;;23.58;16.95;;;;;;;10.07;100.00;100971.81;10372688;28;20082;-79
2023/03/21 17:55:52;;;;;;;26.95;18.55;;;;;;;10.08;100.00;100987.22;10392501;28;20041;-79
2023/03/21 18:00:52;;;;;;;31.20;18.90;;;;;;;9.87;100.00;100962.09;10376161;28;20029;-76
2023/03/21 18:05:52;;;;;;;25.80;19.75;;;;;;;9.94;100.00;100980.38;10389262;28;20041;-80
2023/03/21 18:10:53;;;;;;;34.05;19.42;;;;;;;9.99;100.00;101005.22;10383087;28;20037;-81
2023/03/21 18:15:53;;;;;;;29.20;19.30;;;;;;;9.94;100.00;100991.38;10437630;28;20045;-85
2023/03/21 18:20:54;;;;;;;29.10;19.27;;;;;;;9.95;100.00;100998.56;10438136;28;20504;-83
2023/03/21 18:25:54;;;;;;;33.28;20.42;;;;;;;9.96;100.00;101002.97;10433738;28;20110;-86
2023/03/21 18:30:55;;;;;;;25.73;18.35;;;;;;;9.93;100.00;100990.53;10438376;28;20036;-85
2023/03/21 18:35:56;;;;;;;34.63;19.63;;;;;;;9.96;100.00;100983.72;10413731;28;20042;-85
2023/03/21 18:40:56;;;;;;;25.52;17.92;;;;;;;9.91;100.00;101003.72;10412240;28;20037;-86
2023/03/21 18:45:57;;;;;;;33.45;19.20;;;;;;;9.88;100.00;100988.53;10359538;28;20042;-71
2023/03/21 18:50:57;;;;;;;26.00;18.38;;;;;;;9.86;100.00;100989.84;10354773;28;20037;-84
2023/03/21 18:55:58;;;;;;;28.08;20.00;;;;;;;9.77;100.00;100975.66;10392863;28;20076;-86
2023/03/21 19:00:58;;;;;;;35.15;20.63;;;;;;;9.73;100.00;100996.50;10415184;28;20044;-86
2023/03/21 19:05:59;;;;;;;31.63;22.60;;;;;;;9.69;100.00;100973.31;10419640;28;20037;-85
2023/03/21 19:10:59;;;;;;;33.90;20.83;;;;;;;9.69;100.00;100967.81;10408243;28;20386;-85
2023/03/21 19:16:00;;;;;;;31.50;21.23;;;;;;;9.64;100.00;100952.06;10439562;28;20029;-86
2023/03/21 19:21:01;;;;;;;37.47;22.63;;;;;;;9.73;100.00;100969.00;10419278;28;20044;-85
2023/03/21 19:26:02;;;;;;;35.25;23.90;;;;;;;9.79;100.00;100973.50;10436422;28;20071;-86
2023/03/21 19:31:06;;;;;;;35.13;22.60;;;;;;;9.63;100.00;100966.06;10436666;28;20029;-84
2023/03/21 19:36:07;;;;;;;33.63;21.85;;;;;;;9.46;100.00;100955.84;10452585;28;20029;-86
2023/03/21 19:41:07;;;;;;;29.67;21.65;;;;;;;9.15;100.00;100939.84;10403822;28;20541;-86
2023/03/21 19:46:10;;;;;;;31.52;21.67;;;;;;;9.09;100.00;100947.13;10401975;28;20053;-86
2023/03/21 19:51:10;;;;;;;36.17;24.05;;;;;;;9.01;100.00;100951.09;10379151;28;20117;-86
2023/03/21 19:56:13;;;;;;;37.90;24.17;;;;;;;8.88;100.00;100945.84;10410991;28;20053;-84
2023/03/21 20:01:14;;;;;;;38.50;23.95;;;;;;;8.83;100.00;100943.84;10379682;28;20030;-85
2023/03/21 20:06:15;;;;;;;38.42;24.00;;;;;;;8.92;100.00;100948.97;10366626;28;20041;-85
2023/03/21 20:11:16;;;;;;;40.55;24.88;;;;;;;8.81;100.00;100940.50;10365375;28;20510;-86
2023/03/21 20:16:17;;;;;;;37.90;23.75;;;;;;;8.84;100.00;100936.44;10335260;28;20033;-85
2023/03/21 20:21:17;;;;;;;36.95;23.92;;;;;;;8.75;100.00;100929.66;10338654;28;20049;-86
2023/03/21 20:26:18;;;;;;;33.13;23.58;;;;;;;8.75;100.00;100924.16;10417380;28;20055;-85
2023/03/21 20:31:18;;;;;;;36.72;22.92;;;;;;;8.78;100.00;100935.47;10436356;28;20505;-86
2023/03/21 20:36:20;;;;;;;29.95;20.42;;;;;;;8.87;100.00;100939.53;10371615;28;20129;-86
2023/03/21 20:41:21;;;;;;;30.00;19.83;;;;;;;8.98;100.00;100940.59;10399319;28;20044;-85
2023/03/21 20:46:22;;;;;;;27.45;19.02;;;;;;;9.05;100.00;100918.47;10409069;28;20030;-86
2023/03/21 20:51:22;;;;;;;22.00;17.05;;;;;;;8.80;100.00;100866.63;10360092;28;20044;-87
2023/03/21 20:56:23;;;;;;;23.38;15.50;;;;;;;9.06;100.00;100921.00;10360783;28;20025;-85
2023/03/21 21:01:25;;;;;;;20.60;14.63;;;;;;;9.06;100.00;100903.69;10375443;28;20111;-84
2023/03/21 21:06:26;;;;;;;22.67;17.90;;;;;;;8.98;100.00;100882.91;10376438;28;20072;-85
2023/03/21 21:11:27;;;;;;;23.38;16.73;;;;;;;8.95;100.00;100886.16;10369432;28;20030;-87
2023/03/21 21:16:28;;;;;;;30.80;18.38;;;;;;;8.76;100.00;100870.94;10366696;28;20093;-85
2023/03/21 21:21:30;;;;;;;24.75;17.67;;;;;;;8.71;100.00;100898.28;10334207;28;20076;-84
2023/03/21 21:26:31;;;;;;;27.35;19.08;;;;;;;8.31;100.00;100835.88;10394058;28;20041;-85
2023/03/21 21:31:33;;;;;;;25.92;17.83;;;;;;;8.58;100.00;100881.00;10431019;28;20413;-86
2023/03/21 21:36:34;;;;;;;22.17;16.33;;;;;;;8.77;100.00;100884.41;10447786;28;20042;-87
2023/03/21 21:41:34;;;;;;;21.75;14.43;;;;;;;8.83;100.00;100871.63;10430687;28;20082;-85
2023/03/21 21:46:35;;;;;;;24.17;15.30;;;;;;;8.88;100.00;100864.31;10429451;28;20033;-87
2023/03/21 21:51:36;;;;;;;24.35;15.70;;;;;;;8.87;100.00;100850.84;10375924;28;20050;-87
2023/03/21 21:56:36;;;;;;;25.40;18.10;;;;;;;8.83;100.00;100855.16;10388216;28;20076;-88
2023/03/21 22:01:37;;;;;;;28.55;18.65;;;;;;;8.78;100.00;100857.78;10406684;28;20034;-87
2023/03/21 22:06:38;;;;;;;32.33;19.90;;;;;;;8.80;100.00;100869.38;10407624;28;20339;-89
2023/03/21 22:11:38;;;;;;;30.88;19.33;;;;;;;8.59;100.00;100852.47;10418388;28;20044;-82
2023/03/21 22:16:39;;;;;;;29.35;17.80;;;;;;;8.66;100.00;100861.41;10398345;28;20053;-87
2023/03/21 22:21:40;;;;;;;30.92;21.20;;;;;;;8.54;100.00;100841.38;10403166;28;20069;-83
2023/03/21 22:26:40;;;;;;;32.92;21.05;;;;;;;8.58;100.00;100867.28;10371386;28;20559;-86
2023/03/21 22:31:41;;;;;;;32.80;21.50;;;;;;;8.53;100.00;100861.66;10366800;28;20045;-87
2023/03/21 22:36:45;;;;;;;28.48;21.27;;;;;;;8.54;100.00;100846.88;10367528;28;20034;-86
2023/03/21 22:41:46;;;;;;;29.75;21.08;;;;;;;8.62;100.00;100832.78;10430089;28;20063;-87